Time;durP1;ratioP1;P1;durP2;ratioP2;P2;SDS_P1;SDS_P2;PMS_P1;PMS_P2;Temp;Humidity;BMP_temperature;BMP_pressure;BME280_temperature;BME280_humidity;BME280_pressure;Samples;Min_cycle;Max_cycle;Signal;HPM_P1;HPM_P2
2022/05/09 00:02:02;;;;;;;;;;;12.80;99.90;;;;;;5092365;28;19924;-71
2022/05/09 00:04:28;;;;;;;;;;;12.70;99.90;;;;;;5092814;28;19936;-71
2022/05/09 00:06:55;;;;;;;;;;;12.60;99.90;;;;;;5091787;28;19963;-72
2022/05/09 00:09:22;;;;;;;;;;;12.60;99.90;;;;;;5102631;27;19928;-71
2022/05/09 00:11:49;;;;;;;;;;;12.50;99.90;;;;;;5107972;28;20006;-72
2022/05/09 00:14:16;;;;;;;;;;;12.60;99.90;;;;;;5091494;28;19924;-71
2022/05/09 00:16:42;;;;;;;;;;;12.60;99.90;;;;;;5088724;28;19924;-71
2022/05/09 00:19:10;;;;;;;;;;;12.60;99.90;;;;;;5087187;28;19924;-71
2022/05/09 00:21:38;;;;;;;;;;;12.50;99.90;;;;;;5090624;28;19924;-71
2022/05/09 00:24:05;;;;;;;;;;;12.50;99.90;;;;;;5083736;28;19924;-72
2022/05/09 00:26:32;;;;;;;;;;;12.50;99.90;;;;;;5087356;28;19924;-72
2022/05/09 00:29:03;;;;;;;;;;;12.40;99.90;;;;;;5083569;28;20594;-72
2022/05/09 00:31:30;;;;;;;;;;;12.40;99.90;;;;;;5092572;28;20428;-73
2022/05/09 00:33:57;;;;;;;;;;;12.30;99.90;;;;;;5091990;28;20321;-72
2022/05/09 00:36:24;;;;;;;;;;;12.20;99.90;;;;;;5087746;28;19928;-72
2022/05/09 00:38:51;;;;;;;;;;;12.20;99.90;;;;;;5097188;28;19924;-72
2022/05/09 00:44:06;;;;;;;;;;;12.10;99.90;;;;;;5093097;28;20378;-72
2022/05/09 00:46:33;;;;;;;;;;;12.20;99.90;;;;;;5088655;28;19971;-72
2022/05/09 00:49:19;;;;;;;;;;;12.20;99.90;;;;;;5081465;28;19930;-72
2022/05/09 00:51:48;;;;;;;;;;;12.20;99.90;;;;;;5087918;28;19924;-73
2022/05/09 00:54:15;;;;;;;;;;;12.20;99.90;;;;;;5088710;28;19928;-71
2022/05/09 00:56:49;;;;;;;;;;;12.20;99.90;;;;;;5082273;28;19946;-72
2022/05/09 00:59:17;;;;;;;;;;;12.10;99.90;;;;;;5102357;28;20461;-71
2022/05/09 01:01:46;;;;;;;;;;;12.10;99.90;;;;;;5079897;28;20007;-72
2022/05/09 01:04:15;;;;;;;;;;;12.00;99.90;;;;;;5078615;28;19931;-71
2022/05/09 01:06:42;;;;;;;;;;;12.00;99.90;;;;;;5080484;28;19976;-72
2022/05/09 01:09:11;;;;;;;;;;;11.90;99.90;;;;;;5089846;28;20032;-72
2022/05/09 01:11:40;;;;;;;;;;;11.80;99.90;;;;;;5094932;28;19931;-72
2022/05/09 01:14:09;;;;;;;;;;;11.70;99.90;;;;;;5097021;28;19924;-72
2022/05/09 01:16:36;;;;;;;;;;;11.70;99.90;;;;;;5104601;28;19966;-72
2022/05/09 01:19:07;;;;;;;;;;;11.60;99.90;;;;;;5087824;28;20012;-72
2022/05/09 01:21:35;;;;;;;;;;;11.60;99.90;;;;;;5085419;28;19924;-72
2022/05/09 01:24:03;;;;;;;;;;;11.50;99.90;;;;;;5088582;28;19924;-73
2022/05/09 01:26:30;;;;;;;;;;;11.40;99.90;;;;;;5089407;28;20370;-72
2022/05/09 01:29:00;;;;;;;;;;;11.40;99.90;;;;;;5059498;28;20063;-73
2022/05/09 01:31:26;;;;;;;;;;;11.20;99.90;;;;;;5059460;28;20019;-73
2022/05/09 01:33:57;;;;;;;;;;;11.30;99.90;;;;;;5069568;28;20298;-72
2022/05/09 01:36:27;;;;;;;;;;;11.30;99.90;;;;;;5061735;28;20373;-72
2022/05/09 01:39:02;;;;;;;;;;;11.20;99.90;;;;;;5069891;28;19977;-72
2022/05/09 01:41:35;;;;;;;;;;;11.10;99.90;;;;;;5067033;28;20398;-73
2022/05/09 01:44:04;;;;;;;;;;;11.00;99.90;;;;;;5067828;28;19925;-73
2022/05/09 01:46:32;;;;;;;;;;;11.00;99.90;;;;;;5067751;28;19924;-72
2022/05/09 01:51:45;;;;;;;;;;;11.00;99.90;;;;;;5078977;28;19925;-72
2022/05/09 01:54:12;;;;;;;;;;;11.10;99.90;;;;;;5071866;28;20023;-73
2022/05/09 01:56:42;;;;;;;;;;;11.20;99.90;;;;;;5069702;28;19925;-71
2022/05/09 01:59:10;;;;;;;;;;;11.20;99.90;;;;;;5065846;28;20405;-71
2022/05/09 02:01:42;;;;;;;;;;;11.20;99.90;;;;;;5072215;28;20019;-72
2022/05/09 02:04:11;;;;;;;;;;;11.20;99.90;;;;;;5071087;28;19924;-72
2022/05/09 02:06:40;;;;;;;;;;;11.10;99.90;;;;;;5068144;28;19935;-72
2022/05/09 02:09:07;;;;;;;;;;;11.10;99.90;;;;;;5070206;28;20015;-72
2022/05/09 02:11:34;;;;;;;;;;;11.00;99.90;;;;;;5064738;28;19935;-71
2022/05/09 02:14:02;;;;;;;;;;;11.00;99.90;;;;;;5065516;28;19924;-72
2022/05/09 02:16:28;;;;;;;;;;;10.90;99.90;;;;;;5073155;28;20006;-71
2022/05/09 02:18:55;;;;;;;;;;;10.90;99.90;;;;;;5065988;28;19924;-72
2022/05/09 02:21:22;;;;;;;;;;;10.90;99.90;;;;;;5062011;28;20015;-72
2022/05/09 02:23:51;;;;;;;;;;;10.90;99.90;;;;;;5064595;28;19975;-71
2022/05/09 02:26:18;;;;;;;;;;;10.80;99.90;;;;;;5064354;28;19935;-71
2022/05/09 02:28:44;;;;;;;;;;;10.80;99.90;;;;;;5092657;28;19932;-72
2022/05/09 02:31:11;;;;;;;;;;;10.80;99.90;;;;;;5064586;28;19928;-72
2022/05/09 02:33:38;;;;;;;;;;;10.80;99.90;;;;;;5071906;28;19924;-73
2022/05/09 02:36:04;;;;;;;;;;;10.70;99.90;;;;;;5077832;28;20020;-71
2022/05/09 02:38:31;;;;;;;;;;;10.60;99.90;;;;;;5071436;28;19924;-71
2022/05/09 02:40:58;;;;;;;;;;;10.60;99.90;;;;;;5068683;28;20476;-72
2022/05/09 02:43:24;;;;;;;;;;;10.60;99.90;;;;;;5077265;28;20466;-72
2022/05/09 02:45:51;;;;;;;;;;;10.70;99.90;;;;;;5080320;28;20015;-72
2022/05/09 02:48:18;;;;;;;;;;;10.70;99.90;;;;;;5072947;28;19956;-72
2022/05/09 02:50:45;;;;;;;;;;;10.70;99.90;;;;;;5078067;28;19946;-73
2022/05/09 02:53:13;;;;;;;;;;;10.60;99.90;;;;;;5067391;28;19939;-72
2022/05/09 02:55:39;;;;;;;;;;;10.60;99.90;;;;;;5082056;28;19932;-73
2022/05/09 02:58:06;;;;;;;;;;;10.50;99.90;;;;;;5096475;28;20015;-71
2022/05/09 03:00:33;;;;;;;;;;;10.50;99.90;;;;;;5074986;28;19925;-71
2022/05/09 03:05:47;;;;;;;;;;;10.30;99.90;;;;;;5071653;28;20518;-71
2022/05/09 03:08:15;;;;;;;;;;;10.20;99.90;;;;;;5059196;28;19925;-71
2022/05/09 03:10:42;;;;;;;;;;;10.10;99.90;;;;;;5065110;28;19931;-72
2022/05/09 03:13:09;;;;;;;;;;;10.00;99.90;;;;;;5065522;28;19987;-71
2022/05/09 03:15:38;;;;;;;;;;;9.90;99.90;;;;;;5065960;28;19931;-73
2022/05/09 03:18:06;;;;;;;;;;;9.90;99.90;;;;;;5068667;28;19925;-73
2022/05/09 03:20:32;;;;;;;;;;;9.90;99.90;;;;;;5068679;28;19925;-71
2022/05/09 03:23:04;;;;;;;;;;;9.80;99.90;;;;;;5066948;28;19931;-70
2022/05/09 03:25:35;;;;;;;;;;;9.70;99.90;;;;;;5064781;28;20007;-71
2022/05/09 03:28:08;;;;;;;;;;;9.70;99.90;;;;;;5065078;28;20031;-71
2022/05/09 03:30:36;;;;;;;;;;;9.80;99.90;;;;;;5071052;28;19924;-71
2022/05/09 03:33:03;;;;;;;;;;;9.80;99.90;;;;;;5062413;28;19964;-72
2022/05/09 03:35:30;;;;;;;;;;;9.80;99.90;;;;;;5063124;28;19924;-73
2022/05/09 03:37:57;;;;;;;;;;;9.80;99.90;;;;;;5064541;28;19930;-72
2022/05/09 03:40:24;;;;;;;;;;;9.70;99.90;;;;;;5065387;28;19924;-72
2022/05/09 03:42:51;;;;;;;;;;;9.80;99.90;;;;;;5065506;28;19928;-72
2022/05/09 03:45:17;;;;;;;;;;;9.70;99.90;;;;;;5061082;28;20029;-72
2022/05/09 03:47:44;;;;;;;;;;;9.70;99.90;;;;;;5067487;28;20408;-72
2022/05/09 03:50:12;;;;;;;;;;;9.70;99.90;;;;;;5064988;28;19924;-72
2022/05/09 03:52:39;;;;;;;;;;;9.60;99.90;;;;;;5064811;28;20019;-72
2022/05/09 03:55:06;;;;;;;;;;;9.60;99.90;;;;;;5074769;28;19946;-72
2022/05/09 03:57:33;;;;;;;;;;;9.60;99.90;;;;;;5069652;28;20174;-72
2022/05/09 04:00:08;;;;;;;;;;;9.50;99.90;;;;;;5062334;28;20035;-72
2022/05/09 04:02:35;;;;;;;;;;;9.60;99.90;;;;;;5066511;28;20474;-71
2022/05/09 04:05:02;;;;;;;;;;;9.60;99.90;;;;;;5066872;28;20460;-72
2022/05/09 04:07:29;;;;;;;;;;;9.60;99.90;;;;;;5065313;28;19986;-73
2022/05/09 04:10:02;;;;;;;;;;;9.60;99.90;;;;;;5066299;28;20018;-71
2022/05/09 04:12:31;;;;;;;;;;;9.60;99.90;;;;;;5067215;28;19928;-71
2022/05/09 04:17:43;;;;;;;;;;;9.70;99.90;;;;;;5062624;28;19924;-71
2022/05/09 04:20:10;;;;;;;;;;;9.70;99.90;;;;;;5063881;28;19932;-71
2022/05/09 04:22:37;;;;;;;;;;;9.80;99.90;;;;;;5064084;28;19924;-71
2022/05/09 04:25:04;;;;;;;;;;;9.80;99.90;;;;;;5060584;28;19924;-72
2022/05/09 04:27:32;;;;;;;;;;;9.90;99.90;;;;;;5065407;28;20023;-71
2022/05/09 04:30:00;;;;;;;;;;;9.90;99.90;;;;;;5069760;28;19931;-71
2022/05/09 04:32:27;;;;;;;;;;;10.00;99.90;;;;;;5060923;28;19928;-71
2022/05/09 04:34:54;;;;;;;;;;;10.00;99.90;;;;;;5070913;28;20372;-71
2022/05/09 04:37:20;;;;;;;;;;;10.10;99.90;;;;;;5063339;28;20015;-72
2022/05/09 04:39:48;;;;;;;;;;;10.30;99.90;;;;;;5073416;28;19931;-71
2022/05/09 04:42:14;;;;;;;;;;;10.40;99.90;;;;;;5060788;28;19940;-71
2022/05/09 04:44:41;;;;;;;;;;;10.50;99.90;;;;;;5060843;28;19932;-71
2022/05/09 04:47:08;;;;;;;;;;;10.60;99.90;;;;;;5068988;28;20489;-71
2022/05/09 04:49:34;;;;;;;;;;;10.80;99.90;;;;;;5064823;28;19924;-72
2022/05/09 04:52:04;;;;;;;;;;;10.90;99.90;;;;;;5055062;28;19925;-72
2022/05/09 04:54:31;;;;;;;;;;;11.00;99.90;;;;;;5059606;28;19931;-71
2022/05/09 04:56:57;;;;;;;;;;;11.10;99.90;;;;;;5063690;28;20018;-72
2022/05/09 04:59:26;;;;;;;;;;;11.20;99.90;;;;;;5054636;28;20019;-72
2022/05/09 05:01:53;;;;;;;;;;;11.30;99.90;;;;;;5067903;28;20286;-72
2022/05/09 05:04:25;;;;;;;;;;;11.40;99.90;;;;;;5075700;28;19979;-72
2022/05/09 05:06:52;;;;;;;;;;;11.60;99.90;;;;;;5065900;28;20020;-72
2022/05/09 05:09:18;;;;;;;;;;;12.10;99.90;;;;;;5065363;28;20350;-71
2022/05/09 05:11:45;;;;;;;;;;;13.10;99.90;;;;;;5066599;28;20020;-70
2022/05/09 05:14:13;;;;;;;;;;;13.90;99.90;;;;;;5072236;27;20153;-70
2022/05/09 05:19:26;;;;;;;;;;;15.20;99.90;;;;;;5069286;28;20367;-71
2022/05/09 05:21:53;;;;;;;;;;;16.00;99.90;;;;;;5060059;28;20010;-71
2022/05/09 05:24:20;;;;;;;;;;;16.60;99.90;;;;;;5071530;28;19968;-71
2022/05/09 05:26:46;;;;;;;;;;;17.30;99.90;;;;;;5068917;28;19931;-71
2022/05/09 05:29:16;;;;;;;;;;;18.00;99.90;;;;;;5064294;28;19932;-71
2022/05/09 05:31:43;;;;;;;;;;;18.50;99.90;;;;;;5060642;28;20456;-71
2022/05/09 05:34:10;;;;;;;;;;;18.80;99.90;;;;;;5061087;28;19932;-71
2022/05/09 05:36:36;;;;;;;;;;;18.80;99.90;;;;;;5060630;28;20302;-70
2022/05/09 05:39:07;;;;;;;;;;;19.20;99.90;;;;;;5063830;28;19934;-70
2022/05/09 05:41:34;;;;;;;;;;;19.60;99.90;;;;;;5062631;28;19928;-70
2022/05/09 05:44:00;;;;;;;;;;;19.80;99.90;;;;;;5060923;28;20023;-70
2022/05/09 05:46:27;;;;;;;;;;;19.60;99.90;;;;;;5060349;28;19925;-72
2022/05/09 05:48:54;;;;;;;;;;;19.60;99.90;;;;;;5062510;28;19928;-71
2022/05/09 05:51:21;;;;;;;;;;;19.90;99.90;;;;;;5064978;28;19924;-71
2022/05/09 05:53:47;;;;;;;;;;;19.80;99.90;;;;;;5063826;28;19979;-70
2022/05/09 05:56:14;;;;;;;;;;;20.10;99.90;;;;;;5067284;28;19925;-72
2022/05/09 05:58:41;;;;;;;;;;;20.50;99.90;;;;;;5076613;28;19924;-72
2022/05/09 06:01:07;;;;;;;;;;;20.40;99.90;;;;;;5068887;28;19991;-71
2022/05/09 06:03:36;;;;;;;;;;;20.10;99.90;;;;;;5069946;28;19967;-75
2022/05/09 06:06:03;;;;;;;;;;;20.00;99.90;;;;;;5059244;28;19928;-70
2022/05/09 06:08:30;;;;;;;;;;;20.10;99.90;;;;;;5058342;28;20113;-70
2022/05/09 06:10:56;;;;;;;;;;;20.30;99.90;;;;;;5075067;28;19933;-74
2022/05/09 06:13:23;;;;;;;;;;;20.20;99.90;;;;;;5064746;28;19939;-71
2022/05/09 06:15:50;;;;;;;;;;;20.00;99.90;;;;;;5064365;28;20411;-70
2022/05/09 06:18:17;;;;;;;;;;;20.20;99.90;;;;;;5074177;28;19932;-72
2022/05/09 06:20:43;;;;;;;;;;;20.10;99.90;;;;;;5062252;28;20016;-71
2022/05/09 06:23:16;;;;;;;;;;;20.30;99.90;;;;;;5067369;28;20061;-71
2022/05/09 06:25:46;;;;;;;;;;;20.40;99.90;;;;;;5067248;28;20326;-71
2022/05/09 06:28:18;;;;;;;;;;;20.60;99.90;;;;;;5076852;28;19928;-71
2022/05/09 06:30:47;;;;;;;;;;;20.70;99.90;;;;;;5065852;28;19928;-69
2022/05/09 06:33:20;;;;;;;;;;;21.30;99.90;;;;;;5067372;28;20002;-68
2022/05/09 06:35:46;;;;;;;;;;;21.80;99.90;;;;;;5078573;28;20023;-67
2022/05/09 06:38:18;;;;;;;;;;;22.00;99.90;;;;;;5071848;28;19938;-68
2022/05/09 06:40:44;;;;;;;;;;;22.00;99.90;;;;;;5073485;28;19976;-66
2022/05/09 06:43:11;;;;;;;;;;;22.20;99.90;;;;;;5071489;28;20019;-67
2022/05/09 06:45:38;;;;;;;;;;;22.80;99.90;;;;;;5067727;28;20590;-67
2022/05/09 06:48:05;;;;;;;;;;;22.70;99.90;;;;;;5063799;28;19925;-66
2022/05/09 06:50:33;;;;;;;;;;;22.40;99.90;;;;;;5063511;28;20395;-65
2022/05/09 06:53:00;;;;;;;;;;;22.40;99.90;;;;;;5068947;28;19971;-67
2022/05/09 06:55:49;;;;;;;;;;;22.50;99.90;;;;;;5065476;28;19936;-68
2022/05/09 06:58:21;;;;;;;;;;;22.40;99.90;;;;;;5082294;28;20446;-66
2022/05/09 07:00:48;;;;;;;;;;;22.60;99.90;;;;;;5067522;28;19924;-67
2022/05/09 07:03:15;;;;;;;;;;;22.70;99.90;;;;;;5065767;28;19987;-67
2022/05/09 07:05:44;;;;;;;;;;;22.90;99.90;;;;;;5059190;28;19924;-67
2022/05/09 07:08:12;;;;;;;;;;;22.80;99.90;;;;;;5069270;28;19962;-67
2022/05/09 07:10:38;;;;;;;;;;;23.30;99.90;;;;;;5069672;28;19928;-68
2022/05/09 07:13:05;;;;;;;;;;;23.70;99.90;;;;;;5066993;28;19928;-67
2022/05/09 07:15:32;;;;;;;;;;;24.00;99.90;;;;;;5077462;28;19936;-66
2022/05/09 07:17:59;;;;;;;;;;;23.70;99.50;;;;;;5064065;28;19960;-67
2022/05/09 07:20:27;;;;;;;;;;;23.50;99.90;;;;;;5058086;28;20559;-66
2022/05/09 07:22:55;;;;;;;;;;;23.60;99.90;;;;;;5055021;28;19928;-66
2022/05/09 07:25:23;;;;;;;;;;;23.60;99.70;;;;;;5070299;28;20015;-66
2022/05/09 07:27:50;;;;;;;;;;;23.10;99.90;;;;;;5070182;28;20299;-68
2022/05/09 07:30:19;;;;;;;;;;;22.90;99.80;;;;;;5070378;28;19925;-66
2022/05/09 07:32:52;;;;;;;;;;;22.50;99.90;;;;;;5065648;28;19931;-66
2022/05/09 07:35:21;;;;;;;;;;;22.80;99.90;;;;;;5062741;28;19943;-66
2022/05/09 07:37:48;;;;;;;;;;;23.10;99.90;;;;;;5067924;28;19971;-66
2022/05/09 07:40:16;;;;;;;;;;;23.80;99.90;;;;;;5056373;28;19932;-65
2022/05/09 07:42:44;;;;;;;;;;;23.60;99.90;;;;;;5055041;28;19929;-66
2022/05/09 07:45:12;;;;;;;;;;;23.70;99.50;;;;;;5060733;28;19928;-65
2022/05/09 07:47:39;;;;;;;;;;;23.50;99.90;;;;;;5067856;28;20019;-66
2022/05/09 07:50:07;;;;;;;;;;;23.30;99.70;;;;;;5061829;28;19979;-64
2022/05/09 07:52:34;;;;;;;;;;;23.30;99.60;;;;;;5051894;28;20471;-65
2022/05/09 07:55:01;;;;;;;;;;;22.90;99.90;;;;;;5070738;28;19934;-66
2022/05/09 07:57:28;;;;;;;;;;;23.10;99.90;;;;;;5084841;27;19990;-75
2022/05/09 07:59:58;;;;;;;;;;;23.40;99.90;;;;;;5058824;28;20008;-70
2022/05/09 08:02:25;;;;;;;;;;;23.70;99.70;;;;;;5062223;28;20682;-71
2022/05/09 08:04:52;;;;;;;;;;;24.30;99.40;;;;;;5065311;28;19943;-71
2022/05/09 08:07:19;;;;;;;;;;;23.90;99.80;;;;;;5072821;28;19932;-73
2022/05/09 08:09:46;;;;;;;;;;;24.00;99.30;;;;;;5067083;28;19924;-73
2022/05/09 08:12:13;;;;;;;;;;;24.10;99.90;;;;;;5072676;28;19999;-72
2022/05/09 08:14:39;;;;;;;;;;;24.00;99.30;;;;;;5064443;28;20413;-73
2022/05/09 08:17:09;;;;;;;;;;;24.00;99.40;;;;;;5062567;28;20034;-73
2022/05/09 08:19:38;;;;;;;;;;;23.80;99.80;;;;;;5074872;28;20368;-73
2022/05/09 08:22:10;;;;;;;;;;;23.60;99.50;;;;;;5056286;28;20367;-73
2022/05/09 08:24:42;;;;;;;;;;;23.60;99.40;;;;;;5066415;28;19975;-73
2022/05/09 08:27:11;;;;;;;;;;;23.70;99.60;;;;;;5053052;28;19939;-72
2022/05/09 08:29:37;;;;;;;;;;;23.60;99.90;;;;;;5051711;28;19929;-72
2022/05/09 08:32:05;;;;;;;;;;;23.40;99.90;;;;;;5058569;28;19947;-72
2022/05/09 08:34:32;;;;;;;;;;;23.70;99.90;;;;;;5063439;28;19936;-71
2022/05/09 08:36:59;;;;;;;;;;;24.10;99.90;;;;;;5065200;28;19928;-73
2022/05/09 08:39:26;;;;;;;;;;;24.00;99.60;;;;;;5062203;28;19925;-72
2022/05/09 08:41:57;;;;;;;;;;;24.60;99.30;;;;;;5064217;28;20425;-73
2022/05/09 08:44:43;;;;;;;;;;;24.50;99.20;;;;;;5062677;28;19964;-72
2022/05/09 08:47:15;;;;;;;;;;;25.00;99.20;;;;;;5061396;28;19933;-72
2022/05/09 08:49:45;;;;;;;;;;;25.60;98.30;;;;;;5056353;28;19939;-75
2022/05/09 08:52:24;;;;;;;;;;;25.80;98.40;;;;;;5055205;28;19935;-73
2022/05/09 08:54:53;;;;;;;;;;;25.30;98.40;;;;;;5073368;28;19924;-74
2022/05/09 08:57:23;;;;;;;;;;;25.20;99.00;;;;;;5069723;28;19940;-74
2022/05/09 09:00:01;;;;;;;;;;;25.40;99.60;;;;;;5077861;28;19952;-73
2022/05/09 09:02:40;;;;;;;;;;;25.40;99.40;;;;;;5082699;28;19932;-71
2022/05/09 09:05:10;;;;;;;;;;;25.30;99.20;;;;;;5059595;28;19939;-72
2022/05/09 09:07:40;;;;;;;;;;;25.70;99.20;;;;;;5059185;28;19924;-73
2022/05/09 09:10:16;;;;;;;;;;;26.60;98.70;;;;;;5059496;28;20540;-73
2022/05/09 09:13:01;;;;;;;;;;;26.50;98.80;;;;;;5066727;28;20417;-72
2022/05/09 09:15:38;;;;;;;;;;;26.20;98.40;;;;;;5079042;28;20284;-75
2022/05/09 09:18:17;;;;;;;;;;;27.00;98.80;;;;;;5057330;28;20046;-73
2022/05/09 09:21:11;;;;;;;;;;;27.10;98.90;;;;;;5069341;28;19932;-72
2022/05/09 09:23:38;;;;;;;;;;;27.30;97.20;;;;;;5048329;28;20019;-74
2022/05/09 09:26:26;;;;;;;;;;;27.90;96.80;;;;;;5052967;28;19934;-72
2022/05/09 09:28:56;;;;;;;;;;;28.30;96.90;;;;;;5067109;28;19928;-73
2022/05/09 09:31:31;;;;;;;;;;;28.60;97.50;;;;;;5069381;28;20390;-69
2022/05/09 09:34:00;;;;;;;;;;;27.90;96.40;;;;;;5071782;28;19928;-68
2022/05/09 09:36:32;;;;;;;;;;;26.40;97.00;;;;;;5058514;28;20339;-68
2022/05/09 09:39:19;;;;;;;;;;;26.20;97.50;;;;;;5060141;28;19924;-70
2022/05/09 09:41:46;;;;;;;;;;;26.70;96.90;;;;;;5078816;28;19931;-66
2022/05/09 09:44:14;;;;;;;;;;;26.70;97.00;;;;;;5059283;28;19982;-66
2022/05/09 09:47:08;;;;;;;;;;;26.90;96.70;;;;;;5058702;28;19924;-65
2022/05/09 09:49:39;;;;;;;;;;;27.80;97.20;;;;;;5038319;28;20359;-66
2022/05/09 09:52:21;;;;;;;;;;;28.30;96.30;;;;;;5068986;28;20019;-65
2022/05/09 09:54:51;;;;;;;;;;;28.10;97.00;;;;;;5060521;28;19924;-65
2022/05/09 09:57:19;;;;;;;;;;;28.20;96.10;;;;;;5063670;28;19931;-65
2022/05/09 09:59:46;;;;;;;;;;;29.00;95.70;;;;;;5066594;28;19932;-65
2022/05/09 10:02:19;;;;;;;;;;;29.60;95.70;;;;;;5060928;28;19968;-64
2022/05/09 10:04:50;;;;;;;;;;;29.70;94.80;;;;;;5069374;28;19958;-64
2022/05/09 10:07:17;;;;;;;;;;;;;;;;;;5072691;28;19924;-65
2022/05/09 10:09:44;;;;;;;;;;;;;;;;;;5063557;28;20650;-65
2022/05/09 10:12:14;;;;;;;;;;;;;;;;;;5065923;28;19932;-65
2022/05/09 10:14:41;;;;;;;;;;;;;;;;;;5069717;28;19928;-66
2022/05/09 10:17:08;;;;;;;;;;;;;;;;;;5066846;28;19932;-66
2022/05/09 10:19:37;;;;;;;;;;;;;;;;;;5075353;28;20043;-65
2022/05/09 10:24:52;;;;;;;;;;;;;;;;;;5068402;28;20012;-66
2022/05/09 10:27:23;;;;;;;;;;;;;;;;;;5056136;28;19929;-66
2022/05/09 10:29:50;;;;;;;;;;;;;;;;;;5071835;28;19924;-65
2022/05/09 10:32:17;;;;;;;;;;;;;;;;;;5072543;28;19932;-63
2022/05/09 10:34:45;;;;;;;;;;;;;;;;;;5061750;28;19924;-63
2022/05/09 10:37:13;;;;;;;;;;;;;;;;;;5068116;28;19928;-63
2022/05/09 10:39:40;;;;;;;;;;;;;;;;;;5062435;28;20830;-63
2022/05/09 10:42:09;;;;;;;;;;;;;;;;;;5065151;28;20639;-63
2022/05/09 10:44:39;;;;;;;;;;;;;;;;;;5054156;28;19944;-64
2022/05/09 10:47:06;;;;;;;;;;;28.50;93.60;;;;;;5065242;28;19946;-63
2022/05/09 10:49:50;;;;;;;;;;;28.10;94.00;;;;;;5063826;28;19924;-63
2022/05/09 10:52:33;;;;;;;;;;;28.60;94.20;;;;;;5064985;28;19925;-64
2022/05/09 10:55:16;;;;;;;;;;;29.30;93.70;;;;;;5083011;28;19931;-64
2022/05/09 10:57:43;;;;;;;;;;;29.40;93.90;;;;;;5064267;28;19934;-64
2022/05/09 11:00:18;;;;;;;;;;;29.40;93.20;;;;;;5060861;28;19982;-64
2022/05/09 11:02:51;;;;;;;;;;;28.90;93.00;;;;;;5072089;28;19950;-64
2022/05/09 11:05:19;;;;;;;;;;;28.40;92.90;;;;;;5093353;28;20026;-64
2022/05/09 11:07:50;;;;;;;;;;;27.70;93.30;;;;;;5061910;28;19925;-64
2022/05/09 11:10:26;;;;;;;;;;;27.50;93.60;;;;;;5067694;28;19925;-64
2022/05/09 11:12:53;;;;;;;;;;;27.20;94.20;;;;;;5066813;28;20014;-63
2022/05/09 11:15:32;;;;;;;;;;;26.80;93.80;;;;;;5067793;28;20024;-64
2022/05/09 11:18:07;;;;;;;;;;;27.00;93.40;;;;;;5066240;28;19939;-64
2022/05/09 11:20:50;;;;;;;;;;;27.70;93.20;;;;;;5092151;27;20015;-64
2022/05/09 11:23:17;;;;;;;;;;;28.50;93.10;;;;;;5067466;28;20019;-64
2022/05/09 11:25:44;;;;;;;;;;;29.10;92.80;;;;;;5065186;28;19939;-64
2022/05/09 11:28:17;;;;;;;;;;;29.70;92.20;;;;;;5066408;28;19939;-62
2022/05/09 11:30:49;;;;;;;;;;;29.00;91.50;;;;;;5065528;28;20011;-64
2022/05/09 11:33:21;;;;;;;;;;;28.10;91.80;;;;;;5074569;28;20467;-64
2022/05/09 11:35:49;;;;;;;;;;;28.20;92.30;;;;;;5065500;28;19959;-65
2022/05/09 11:38:22;;;;;;;;;;;28.60;92.10;;;;;;5061564;28;19938;-63
2022/05/09 11:41:00;;;;;;;;;;;28.60;92.40;;;;;;5070762;28;19936;-63
2022/05/09 11:43:46;;;;;;;;;;;28.20;92.20;;;;;;5074660;28;19971;-65
2022/05/09 11:46:20;;;;;;;;;;;28.10;93.00;;;;;;5068766;28;19924;-65
2022/05/09 11:48:58;;;;;;;;;;;27.80;92.30;;;;;;5074532;28;19956;-64
2022/05/09 11:51:44;;;;;;;;;;;27.50;92.50;;;;;;5066528;28;19940;-64
2022/05/09 11:54:16;;;;;;;;;;;27.30;92.90;;;;;;5061512;28;19925;-63
2022/05/09 11:56:45;;;;;;;;;;;27.30;93.80;;;;;;5077879;28;19928;-63
2022/05/09 11:59:23;;;;;;;;;;;27.90;93.20;;;;;;5066069;28;20373;-63
2022/05/09 12:01:56;;;;;;;;;;;28.40;92.70;;;;;;5057707;28;19935;-62
2022/05/09 12:04:35;;;;;;;;;;;28.30;92.40;;;;;;5061731;28;19938;-62
2022/05/09 12:07:19;;;;;;;;;;;28.30;92.30;;;;;;5062555;28;19971;-72
2022/05/09 12:09:51;;;;;;;;;;;28.00;92.60;;;;;;5066824;28;20002;-74
2022/05/09 12:12:36;;;;;;;;;;;27.70;92.00;;;;;;5069964;28;19925;-73
2022/05/09 12:15:04;;;;;;;;;;;27.10;92.60;;;;;;5059270;28;20020;-77
2022/05/09 12:17:33;;;;;;;;;;;26.80;92.40;;;;;;5062175;28;19931;-76
2022/05/09 12:20:01;;;;;;;;;;;27.00;92.90;;;;;;5063862;28;20062;-79
2022/05/09 12:22:37;;;;;;;;;;;27.50;92.40;;;;;;5072155;28;20307;-77
2022/05/09 12:25:05;;;;;;;;;;;27.80;92.50;;;;;;5066513;28;19929;-76
2022/05/09 12:27:50;;;;;;;;;;;28.10;92.20;;;;;;5062234;28;20042;-74
2022/05/09 12:30:36;;;;;;;;;;;29.00;92.50;;;;;;5062611;28;19924;-71
2022/05/09 12:33:13;;;;;;;;;;;28.90;91.80;;;;;;5057275;28;20007;-76
2022/05/09 12:35:45;;;;;;;;;;;28.30;91.80;;;;;;5068716;28;20377;-70
2022/05/09 12:38:13;;;;;;;;;;;28.50;92.00;;;;;;5071563;28;19976;-72
2022/05/09 12:40:40;;;;;;;;;;;27.90;91.40;;;;;;5065526;28;20432;-74
2022/05/09 12:43:08;;;;;;;;;;;27.30;92.20;;;;;;5070343;28;20383;-71
2022/05/09 12:45:39;;;;;;;;;;;27.10;92.40;;;;;;5059220;28;20001;-73
2022/05/09 12:48:08;;;;;;;;;;;27.30;92.30;;;;;;5074207;28;19925;-72
2022/05/09 12:50:43;;;;;;;;;;;27.40;92.20;;;;;;5069672;28;20021;-77
2022/05/09 12:53:13;;;;;;;;;;;27.50;91.60;;;;;;5070373;28;19946;-77
2022/05/09 12:55:55;;;;;;;;;;;27.80;91.50;;;;;;5067000;28;19924;-75
2022/05/09 12:58:28;;;;;;;;;;;27.90;91.20;;;;;;5078235;28;19933;-78
2022/05/09 13:00:55;;;;;;;;;;;28.30;91.10;;;;;;5067106;28;19932;-78
2022/05/09 13:03:43;;;;;;;;;;;28.90;91.60;;;;;;5063718;28;19924;-64
2022/05/09 13:06:11;;;;;;;;;;;29.20;91.60;;;;;;5062816;28;19925;-63
2022/05/09 13:08:38;;;;;;;;;;;29.50;90.90;;;;;;5062717;28;20398;-63
2022/05/09 13:11:14;;;;;;;;;;;30.00;91.00;;;;;;5059442;28;19931;-64
2022/05/09 13:13:44;;;;;;;;;;;29.80;90.10;;;;;;5067581;28;19939;-65
2022/05/09 13:16:17;;;;;;;;;;;29.80;90.00;;;;;;5078212;28;20290;-63
2022/05/09 13:18:44;;;;;;;;;;;30.10;90.90;;;;;;5056491;28;19928;-65
2022/05/09 13:21:11;;;;;;;;;;;30.00;90.40;;;;;;5063947;28;19952;-66
2022/05/09 13:23:46;;;;;;;;;;;29.90;90.60;;;;;;5067888;28;19925;-65
2022/05/09 13:26:17;;;;;;;;;;;29.90;90.10;;;;;;5059973;28;20503;-66
2022/05/09 13:28:43;;;;;;;;;;;29.80;90.50;;;;;;5065934;28;19933;-66
2022/05/09 13:31:24;;;;;;;;;;;29.70;90.00;;;;;;5066341;28;19928;-65
2022/05/09 13:33:51;;;;;;;;;;;29.30;90.00;;;;;;5056274;28;19978;-65
2022/05/09 13:36:20;;;;;;;;;;;29.20;90.90;;;;;;5085363;28;19978;-66
2022/05/09 13:38:47;;;;;;;;;;;29.30;90.20;;;;;;5059872;28;19930;-66
2022/05/09 13:41:15;;;;;;;;;;;29.60;89.80;;;;;;5062101;28;19971;-65
2022/05/09 13:43:47;;;;;;;;;;;29.90;89.10;;;;;;5058943;28;20023;-65
2022/05/09 13:46:16;;;;;;;;;;;30.10;88.00;;;;;;5057898;28;19928;-65
2022/05/09 13:48:44;;;;;;;;;;;30.20;88.10;;;;;;5067609;28;19938;-66
2022/05/09 13:51:11;;;;;;;;;;;30.70;87.40;;;;;;5056469;28;19928;-64
2022/05/09 13:53:45;;;;;;;;;;;30.70;86.60;;;;;;5061133;28;20236;-64
2022/05/09 13:56:21;;;;;;;;;;;30.20;87.50;;;;;;5065106;28;19925;-63
2022/05/09 13:58:49;;;;;;;;;;;30.30;88.60;;;;;;5064490;28;20003;-64
2022/05/09 14:01:17;;;;;;;;;;;30.90;86.90;;;;;;5061834;28;19963;-65
2022/05/09 14:03:44;;;;;;;;;;;;;;;;;;5071387;28;19933;-65
2022/05/09 14:06:11;;;;;;;;;;;;;;;;;;5069390;28;19936;-65
2022/05/09 14:08:38;;;;;;;;;;;;;;;;;;5062905;28;19925;-65
2022/05/09 14:11:08;;;;;;;;;;;;;;;;;;5062062;28;19932;-65
2022/05/09 14:13:35;;;;;;;;;;;;;;;;;;5056577;28;19933;-65
2022/05/09 14:16:02;;;;;;;;;;;;;;;;;;5070688;28;20387;-66
2022/05/09 14:18:29;;;;;;;;;;;;;;;;;;5057445;28;19925;-65
2022/05/09 14:20:56;;;;;;;;;;;;;;;;;;5095730;28;19924;-64
2022/05/09 14:23:23;;;;;;;;;;;;;;;;;;5060565;28;19937;-66
2022/05/09 14:31:28;;;;;;;;;;;;;;;;;;5062431;28;19925;-61
2022/05/09 14:33:55;;;;;;;;;;;;;;;;;;5062031;28;19932;-61
2022/05/09 14:36:22;;;;;;;;;;;;;;;;;;5070489;28;20379;-61
2022/05/09 14:38:54;;;;;;;;;;;;;;;;;;5078683;28;19993;-61
2022/05/09 14:41:36;;;;;;;;;;;;;;;;;;5072130;28;19949;-61
2022/05/09 14:44:03;;;;;;;;;;;;;;;;;;5067219;28;19942;-61
2022/05/09 14:46:30;;;;;;;;;;;;;;;;;;5058934;28;19933;-61
2022/05/09 14:48:57;;;;;;;;;;;;;;;;;;5066586;28;20054;-61
2022/05/09 14:51:25;;;;;;;;;;;;;;;;;;5066703;28;19929;-62
2022/05/09 14:53:52;;;;;;;;;;;28.40;83.80;;;;;;5071813;28;21559;-60
2022/05/09 14:59:07;;;;;;;;;;;27.40;86.80;;;;;;5061743;28;20295;-60
2022/05/09 15:01:48;;;;;;;;;;;27.20;87.10;;;;;;5067190;28;19924;-60
2022/05/09 15:04:14;;;;;;;;;;;26.90;87.20;;;;;;5060408;28;19931;-60
2022/05/09 15:06:41;;;;;;;;;;;28.50;86.90;;;;;;5064921;28;19925;-60
2022/05/09 15:09:08;;;;;;;;;;;30.30;84.90;;;;;;5064201;28;19924;-60
2022/05/09 15:11:35;;;;;;;;;;;;;;;;;;5060755;28;20003;-60